Time;durP1;ratioP1;P1;durP2;ratioP2;P2;SDS_P1;SDS_P2;PMS_P1;PMS_P2;Temp;Humidity;BMP_temperature;BMP_pressure;BME280_temperature;BME280_humidity;BME280_pressure;Samples;Min_cycle;Max_cycle;Signal;HPM_P1;HPM_P2
2022/02/04 00:05:04;;;;;;;41.88;30.58;;;8.00;99.90;;;;;;5071287;28;20484;-60
2022/02/04 00:21:21;;;;;;;43.83;29.48;;;8.00;99.90;;;;;;5069963;28;20051;-59
2022/02/04 00:23:42;;;;;;;41.67;30.30;;;8.00;99.90;;;;;;5065364;28;20108;-60
2022/02/04 00:26:17;;;;;;;41.30;29.38;;;8.00;99.90;;;;;;5065455;28;20021;-59
2022/02/04 00:33:40;;;;;;;44.45;30.80;;;8.00;99.90;;;;;;5062481;28;20013;-60
2022/02/04 00:36:13;;;;;;;43.25;29.20;;;8.10;99.90;;;;;;5070096;28;20013;-59
2022/02/04 00:38:43;;;;;;;46.08;31.90;;;8.00;99.90;;;;;;5068060;28;20020;-60
2022/02/04 00:41:11;;;;;;;43.90;31.00;;;8.00;99.90;;;;;;5070821;28;20028;-60
2022/02/04 00:43:38;;;;;;;42.83;29.30;;;8.00;99.90;;;;;;5070372;28;20116;-59
2022/02/04 00:46:15;;;;;;;40.00;28.10;;;8.00;99.90;;;;;;5065777;28;20067;-59
2022/02/04 00:51:25;;;;;;;39.58;28.70;;;8.00;99.90;;;;;;5070436;28;20013;-60
2022/02/04 01:26:06;;;;;;;29.40;21.70;;;8.00;99.90;;;;;;5072953;28;20082;-59
2022/02/04 01:28:34;;;;;;;30.63;21.40;;;8.00;99.90;;;;;;5072681;28;20472;-59
2022/02/04 01:31:00;;;;;;;32.30;22.08;;;8.00;99.90;;;;;;5072373;28;20024;-60
2022/02/04 01:33:27;;;;;;;29.25;20.38;;;8.10;99.90;;;;;;5069961;28;20100;-60
2022/02/04 01:35:54;;;;;;;30.58;22.15;;;8.10;99.90;;;;;;5069587;28;20032;-60
2022/02/04 01:38:22;;;;;;;28.42;20.27;;;8.10;99.90;;;;;;5066867;28;20484;-60
2022/02/04 01:40:47;;;;;;;29.55;21.65;;;8.10;99.90;;;;;;5069891;28;20533;-60
2022/02/04 01:43:13;;;;;;;27.13;19.85;;;8.10;99.90;;;;;;5069638;28;20021;-60
2022/02/04 01:45:38;;;;;;;30.00;20.20;;;8.10;99.90;;;;;;5068846;28;20142;-59
2022/02/04 01:48:04;;;;;;;26.30;19.15;;;8.10;99.90;;;;;;5058363;28;20040;-59
2022/02/04 01:50:31;;;;;;;29.40;20.42;;;8.10;99.90;;;;;;5069547;28;20025;-60
2022/02/04 01:52:59;;;;;;;27.33;18.85;;;8.10;99.90;;;;;;5070750;28;20029;-60
2022/02/04 01:55:25;;;;;;;27.55;20.15;;;8.10;99.90;;;;;;5071674;28;20103;-59
2022/02/04 01:57:51;;;;;;;28.88;20.00;;;8.10;99.90;;;;;;5064447;28;20499;-59
2022/02/04 02:00:17;;;;;;;25.88;18.80;;;8.10;99.90;;;;;;5068606;28;20020;-60
2022/02/04 02:02:43;;;;;;;25.27;18.33;;;8.10;99.90;;;;;;5070943;28;20021;-59
2022/02/04 02:05:09;;;;;;;26.67;19.27;;;8.10;99.90;;;;;;5071823;28;20130;-59
2022/02/04 02:07:45;;;;;;;26.55;18.17;;;8.10;99.90;;;;;;5063570;28;20040;-60
2022/02/04 02:10:14;;;;;;;24.33;17.23;;;8.10;99.90;;;;;;5068480;28;20028;-59
2022/02/04 02:35:13;;;;;;;23.13;15.60;;;8.10;99.90;;;;;;5066605;28;20036;-60
2022/02/04 02:59:09;;;;;;;18.75;13.82;;;8.10;99.90;;;;;;5066073;28;20032;-59
2022/02/04 03:01:34;;;;;;;16.75;12.82;;;8.00;99.90;;;;;;5071938;28;20038;-60
2022/02/04 03:04:05;;;;;;;18.70;13.27;;;8.00;99.90;;;;;;5059242;28;20541;-59
2022/02/04 03:06:31;;;;;;;22.27;13.35;;;8.00;99.90;;;;;;5064240;28;20008;-60
2022/02/04 03:08:56;;;;;;;16.63;11.43;;;8.10;99.90;;;;;;5062494;28;20025;-59
2022/02/04 03:11:22;;;;;;;16.85;11.50;;;8.10;99.90;;;;;;5068339;28;20029;-60
2022/02/04 03:13:48;;;;;;;18.83;13.60;;;8.10;99.90;;;;;;5063683;28;20051;-60
2022/02/04 03:16:17;;;;;;;18.45;11.93;;;8.00;99.90;;;;;;5064915;28;20029;-60
2022/02/04 03:18:47;;;;;;;21.67;11.50;;;8.10;99.90;;;;;;5067587;28;20112;-60
2022/02/04 03:21:19;;;;;;;18.48;11.43;;;8.10;99.90;;;;;;5062251;28;20090;-59
2022/02/04 03:23:51;;;;;;;16.92;11.82;;;8.10;99.90;;;;;;5061845;28;20021;-60
2022/02/04 03:26:27;;;;;;;15.77;11.40;;;8.10;99.90;;;;;;5070511;28;20070;-59
2022/02/04 03:28:53;;;;;;;15.02;11.27;;;8.20;99.90;;;;;;5067132;28;20016;-60
2022/02/04 03:31:19;;;;;;;19.42;11.73;;;8.20;99.90;;;;;;5079662;28;20024;-60
2022/02/04 03:33:46;;;;;;;15.90;10.93;;;8.20;99.90;;;;;;5073864;28;20039;-59
2022/02/04 03:36:11;;;;;;;14.93;11.05;;;8.20;99.90;;;;;;5075220;28;20024;-59
2022/02/04 03:38:37;;;;;;;14.75;10.75;;;8.20;99.90;;;;;;5080480;28;20500;-60
2022/02/04 03:41:03;;;;;;;13.63;10.13;;;8.20;99.90;;;;;;5071558;28;20036;-60
2022/02/04 03:43:28;;;;;;;14.57;10.10;;;8.20;99.90;;;;;;5069553;28;20017;-60
2022/02/04 03:45:54;;;;;;;16.42;9.63;;;8.10;99.90;;;;;;5070836;28;20523;-60
2022/02/04 03:48:20;;;;;;;15.20;10.50;;;8.20;99.90;;;;;;5069232;28;20028;-60
2022/02/04 03:50:45;;;;;;;20.40;11.93;;;8.20;99.90;;;;;;5070917;28;20028;-60
2022/02/04 03:53:16;;;;;;;14.40;9.88;;;8.20;99.90;;;;;;5071789;28;20021;-60
2022/02/04 03:55:42;;;;;;;15.80;9.20;;;8.20;99.90;;;;;;5070629;28;20098;-60
2022/02/04 03:58:11;;;;;;;14.18;9.70;;;8.10;99.90;;;;;;5070399;28;20480;-60
2022/02/04 04:00:37;;;;;;;15.57;10.00;;;8.20;99.90;;;;;;5063734;28;20024;-60
2022/02/04 04:03:02;;;;;;;16.02;10.63;;;8.20;99.90;;;;;;5070490;28;20043;-60
2022/02/04 04:05:29;;;;;;;14.57;10.90;;;8.10;99.90;;;;;;5069313;28;20025;-60
2022/02/04 04:07:55;;;;;;;14.38;9.25;;;8.10;99.90;;;;;;5070509;28;20020;-60
2022/02/04 04:10:24;;;;;;;13.50;10.10;;;8.10;99.90;;;;;;5072973;28;20081;-60
2022/02/04 04:12:50;;;;;;;16.40;9.17;;;8.20;99.90;;;;;;5074250;28;20415;-60
2022/02/04 04:15:17;;;;;;;15.35;9.20;;;8.20;99.90;;;;;;5074064;28;20582;-59
2022/02/04 04:17:45;;;;;;;15.80;8.93;;;8.20;99.90;;;;;;5073860;28;20021;-60
2022/02/04 04:20:15;;;;;;;12.93;9.07;;;8.20;99.90;;;;;;5074105;28;20021;-60
2022/02/04 04:22:42;;;;;;;12.45;8.70;;;8.20;99.90;;;;;;5072686;28;20017;-60
2022/02/04 04:25:08;;;;;;;13.77;8.95;;;8.20;99.90;;;;;;5073923;28;20631;-59
2022/02/04 04:27:34;;;;;;;13.35;9.32;;;8.20;99.90;;;;;;5073858;28;20055;-60
2022/02/04 04:30:00;;;;;;;15.30;9.07;;;8.20;99.90;;;;;;5072263;28;20024;-60
2022/02/04 04:32:26;;;;;;;12.63;8.48;;;8.20;99.90;;;;;;5073743;28;20028;-59
2022/02/04 04:34:51;;;;;;;13.18;8.40;;;8.20;99.90;;;;;;5073872;28;20028;-59
2022/02/04 04:37:17;;;;;;;13.65;8.30;;;8.20;99.90;;;;;;5073584;28;20400;-59
2022/02/04 04:45:47;;;;;;;12.55;8.63;;;8.20;99.90;;;;;;5074690;28;20025;-59
2022/02/04 05:29:07;;;;;;;7.90;5.70;;;8.10;99.90;;;;;;5072885;28;20119;-60
2022/02/04 05:31:32;;;;;;;11.13;6.35;;;8.10;99.90;;;;;;5071536;28;20024;-59
2022/02/04 05:33:58;;;;;;;11.38;6.32;;;8.10;99.90;;;;;;5072493;28;20030;-59
2022/02/04 05:36:24;;;;;;;8.23;5.43;;;8.20;99.90;;;;;;5072832;28;20044;-59
2022/02/04 05:38:52;;;;;;;11.68;6.43;;;8.20;99.90;;;;;;5072459;28;20494;-59
2022/02/04 05:41:24;;;;;;;8.07;4.90;;;8.10;99.90;;;;;;5072415;28;20024;-60
2022/02/04 05:43:51;;;;;;;9.63;5.50;;;8.20;99.90;;;;;;5073756;28;20754;-60
2022/02/04 05:46:20;;;;;;;8.25;5.63;;;8.20;99.90;;;;;;5072312;28;20074;-60
2022/02/04 05:48:51;;;;;;;10.80;5.53;;;8.20;99.90;;;;;;5070203;28;20040;-60
2022/02/04 05:54:00;;;;;;;7.55;4.82;;;8.20;99.90;;;;;;5070737;28;20025;-60
2022/02/04 05:56:34;;;;;;;7.82;5.13;;;8.20;99.90;;;;;;5073465;28;20017;-60
2022/02/04 06:22:08;;;;;;;7.22;3.97;;;8.20;99.90;;;;;;5069167;28;20404;-60
2022/02/04 06:23:13;;;;;;;6.03;3.85;;;8.20;99.90;;;;;;5071627;28;20025;-60
2022/02/04 06:25:40;;;;;;;5.93;3.72;;;8.20;99.90;;;;;;5071436;28;20021;-60
2022/02/04 06:28:06;;;;;;;6.68;3.65;;;8.20;99.90;;;;;;5070237;28;20024;-60
2022/02/04 06:30:32;;;;;;;5.78;3.65;;;8.20;99.90;;;;;;5072960;28;20024;-60
2022/02/04 06:32:58;;;;;;;7.20;3.67;;;8.20;99.90;;;;;;5071364;28;20545;-59
2022/02/04 06:35:24;;;;;;;6.70;3.92;;;8.30;99.90;;;;;;5073028;28;20020;-60
2022/02/04 06:37:50;;;;;;;5.65;4.03;;;8.20;99.90;;;;;;5073314;28;20480;-59
2022/02/04 06:40:15;;;;;;;6.28;3.42;;;8.30;99.90;;;;;;5073033;28;20528;-60
2022/02/04 06:42:41;;;;;;;5.90;3.65;;;8.30;99.90;;;;;;5073181;28;20035;-60
2022/02/04 06:45:08;;;;;;;7.10;3.80;;;8.30;99.90;;;;;;5073688;28;20481;-59
2022/02/04 06:47:34;;;;;;;5.90;3.65;;;8.30;99.90;;;;;;5072903;28;20103;-59
2022/02/04 06:50:00;;;;;;;5.57;3.72;;;8.30;99.90;;;;;;5088592;28;20120;-59
2022/02/04 06:52:26;;;;;;;5.32;3.47;;;8.40;99.90;;;;;;5091449;28;20111;-60
2022/02/04 06:54:51;;;;;;;6.25;3.72;;;8.40;99.90;;;;;;5091625;28;20028;-60
2022/02/04 06:57:17;;;;;;;6.47;4.13;;;8.40;99.90;;;;;;5091680;28;20536;-59
2022/02/04 06:59:45;;;;;;;6.22;3.60;;;8.40;99.90;;;;;;5091724;28;20490;-60
2022/02/04 07:02:10;;;;;;;6.25;4.22;;;8.40;99.90;;;;;;5072079;28;20027;-59
2022/02/04 07:04:36;;;;;;;6.85;4.00;;;8.30;99.90;;;;;;5072401;28;20020;-60
2022/02/04 07:07:02;;;;;;;4.95;4.05;;;8.30;99.90;;;;;;5072503;28;20473;-60
2022/02/04 07:20:08;;;;;;;5.22;4.03;;;8.30;99.90;;;;;;5008817;28;20245;-60
2022/02/04 07:22:38;;;;;;;4.85;3.35;;;8.30;99.90;;;;;;5009316;28;20104;-59
2022/02/04 07:25:05;;;;;;;5.45;4.13;;;8.30;99.90;;;;;;5031285;28;20439;-60
2022/02/04 07:27:32;;;;;;;4.90;3.85;;;8.30;99.90;;;;;;5052287;28;20083;-59
2022/02/04 07:29:58;;;;;;;4.85;3.47;;;8.30;99.90;;;;;;5052503;28;20438;-59
2022/02/04 07:43:09;;;;;;;6.65;4.15;;;8.20;99.90;;;;;;5052221;28;20087;-59
2022/02/04 07:45:35;;;;;;;6.93;4.63;;;8.20;99.90;;;;;;5088169;28;20024;-59
2022/02/04 07:48:01;;;;;;;5.55;4.55;;;8.10;99.90;;;;;;5089168;28;20029;-60
2022/02/04 07:50:27;;;;;;;5.35;4.60;;;8.10;99.90;;;;;;5075326;28;20115;-60
2022/02/04 07:52:54;;;;;;;8.35;5.28;;;8.10;99.90;;;;;;5074852;28;20092;-60
2022/02/04 07:55:21;;;;;;;7.00;5.03;;;8.10;99.90;;;;;;5071168;28;20029;-59
2022/02/04 07:57:47;;;;;;;7.35;5.57;;;8.10;99.90;;;;;;5074660;28;20115;-60
2022/02/04 08:00:16;;;;;;;7.60;5.88;;;8.00;99.90;;;;;;5081317;28;20111;-60
2022/02/04 08:02:46;;;;;;;8.38;5.95;;;8.10;99.90;;;;;;5075135;28;20476;-59
2022/02/04 08:05:15;;;;;;;6.97;5.80;;;8.00;99.90;;;;;;5076261;28;20430;-59
2022/02/04 08:07:55;;;;;;;8.80;5.73;;;8.00;99.90;;;;;;5074877;28;20025;-60
2022/02/04 08:10:28;;;;;;;9.10;6.07;;;8.00;99.90;;;;;;5067512;28;20021;-60
2022/02/04 08:13:19;;;;;;;9.02;6.22;;;8.00;99.90;;;;;;5075832;28;20469;-59
2022/02/04 08:34:43;;;;;;;9.82;6.72;;;8.10;99.90;;;;;;5073613;28;20420;-59
2022/02/04 08:48:49;;;;;;;8.52;6.63;;;8.20;99.90;;;;;;5095380;28;20120;-59
2022/02/04 08:55:58;;;;;;;10.00;7.57;;;8.30;99.90;;;;;;5079334;28;20100;-59
2022/02/04 09:03:35;;;;;;;9.43;7.32;;;8.30;99.90;;;;;;5074304;28;20103;-59
2022/02/04 09:06:19;;;;;;;9.07;7.10;;;8.30;99.90;;;;;;5073693;28;20103;-59
2022/02/04 09:08:49;;;;;;;10.82;8.63;;;8.30;99.90;;;;;;5074462;28;20028;-59
2022/02/04 09:11:25;;;;;;;10.27;8.02;;;8.30;99.90;;;;;;5074510;28;20038;-59
2022/02/04 09:17:00;;;;;;;9.55;7.45;;;8.30;99.90;;;;;;5072022;28;20396;-60
2022/02/04 09:19:38;;;;;;;12.20;7.97;;;8.30;99.90;;;;;;5074064;28;20024;-60
2022/02/04 09:22:18;;;;;;;11.57;8.43;;;8.30;99.90;;;;;;5074380;28;20083;-60
2022/02/04 09:24:43;;;;;;;10.90;8.07;;;8.10;99.90;;;;;;5072672;28;20032;-60
2022/02/04 09:27:09;;;;;;;9.98;8.77;;;8.10;99.90;;;;;;5074074;28;20392;-60
2022/02/04 09:29:35;;;;;;;12.32;9.57;;;8.00;99.90;;;;;;5074064;28;20120;-60
2022/02/04 09:32:00;;;;;;;10.48;8.23;;;8.00;99.90;;;;;;5072542;28;20030;-60
2022/02/04 09:34:26;;;;;;;12.52;9.32;;;8.00;99.90;;;;;;5074339;28;20105;-60
2022/02/04 09:36:51;;;;;;;10.35;7.90;;;8.00;99.90;;;;;;5074001;28;20116;-60
2022/02/04 09:39:17;;;;;;;9.38;7.93;;;8.00;99.90;;;;;;5073307;28;20051;-59
2022/02/04 09:41:43;;;;;;;10.02;8.68;;;8.10;99.90;;;;;;5072561;28;20029;-60
2022/02/04 09:44:08;;;;;;;9.55;8.05;;;8.00;99.90;;;;;;5079349;28;20028;-59
2022/02/04 09:46:35;;;;;;;11.60;8.88;;;8.00;99.90;;;;;;5093861;28;20024;-60
2022/02/04 09:49:08;;;;;;;10.20;8.27;;;8.10;99.90;;;;;;5109823;28;20027;-59
2022/02/04 09:51:54;;;;;;;11.50;9.20;;;8.10;99.90;;;;;;5094127;28;20055;-59
2022/02/04 10:06:49;;;;;;;8.57;7.43;;;8.40;99.90;;;;;;5093772;28;20046;-59
2022/02/04 10:09:07;;;;;;;7.20;6.47;;;8.40;99.90;;;;;;5092905;28;20032;-60
2022/02/04 10:17:06;;;;;;;6.43;5.35;;;8.30;99.90;;;;;;5053381;28;20037;-60
2022/02/04 10:19:42;;;;;;;5.93;5.32;;;8.20;99.90;;;;;;5069698;28;20029;-60
2022/02/04 10:22:08;;;;;;;6.68;5.65;;;8.10;99.90;;;;;;5073216;28;20032;-60
2022/02/04 10:24:35;;;;;;;6.30;5.60;;;8.00;99.90;;;;;;5071875;28;20020;-60
2022/02/04 10:27:18;;;;;;;7.45;6.15;;;8.00;99.90;;;;;;5073231;28;20028;-60
2022/02/04 10:29:51;;;;;;;7.53;6.28;;;8.00;99.90;;;;;;5071537;28;20024;-59
2022/02/04 10:32:17;;;;;;;8.32;6.03;;;8.10;99.90;;;;;;5071212;28;20028;-60
2022/02/04 10:34:59;;;;;;;6.13;5.22;;;8.10;99.90;;;;;;5070872;28;20532;-60
2022/02/04 10:37:28;;;;;;;7.53;6.15;;;8.10;99.90;;;;;;5070465;28;20021;-60
2022/02/04 10:40:13;;;;;;;8.82;5.90;;;8.10;99.90;;;;;;5068176;28;20016;-60
2022/02/04 10:53:37;;;;;;;6.43;5.22;;;8.30;99.90;;;;;;5075549;28;20056;-59
2022/02/04 11:03:44;;;;;;;6.68;4.97;;;8.40;99.90;;;;;;5072408;28;20025;-60
2022/02/04 11:06:32;;;;;;;5.68;5.00;;;8.40;99.90;;;;;;5072585;28;20024;-60
2022/02/04 11:31:03;;;;;;;4.78;3.38;;;8.80;99.90;;;;;;5079262;28;20027;-60
2022/02/04 11:36:27;;;;;;;5.45;3.78;;;8.90;99.90;;;;;;5079180;28;20020;-60
2022/02/04 11:49:15;;;;;;;3.92;2.75;;;9.40;99.90;;;;;;5069419;28;20111;-59
2022/02/04 11:57:01;;;;;;;3.60;2.55;;;9.50;99.90;;;;;;5072622;28;20029;-60
2022/02/04 11:59:37;;;;;;;4.43;2.85;;;9.50;99.90;;;;;;5075030;28;20025;-60
2022/02/04 12:02:32;;;;;;;4.65;2.55;;;9.40;99.90;;;;;;5076285;28;20020;-60
2022/02/04 12:05:15;;;;;;;3.83;2.53;;;9.40;99.90;;;;;;5073705;28;20021;-60
2022/02/04 12:08:19;;;;;;;3.95;2.38;;;9.40;99.90;;;;;;5072403;28;20056;-59
2022/02/04 12:10:50;;;;;;;4.25;2.45;;;9.40;99.90;;;;;;5073427;28;20409;-59
2022/02/04 12:13:18;;;;;;;3.63;2.70;;;9.30;99.90;;;;;;5074170;28;20115;-59
2022/02/04 12:16:06;;;;;;;5.10;2.95;;;9.30;99.90;;;;;;5075702;28;20032;-59
2022/02/04 12:18:36;;;;;;;8.80;3.10;;;9.30;99.90;;;;;;5084899;28;20033;-60
2022/02/04 12:21:03;;;;;;;4.22;3.10;;;9.30;99.90;;;;;;5071865;28;20020;-60
2022/02/04 12:23:29;;;;;;;4.78;3.38;;;9.20;99.90;;;;;;5075690;28;20040;-59
2022/02/04 12:26:12;;;;;;;4.38;3.30;;;9.20;99.90;;;;;;5075338;28;20033;-59
2022/02/04 12:28:43;;;;;;;4.85;3.30;;;9.10;99.90;;;;;;5071797;28;20131;-60
2022/02/04 12:31:17;;;;;;;6.68;3.97;;;9.10;99.90;;;;;;5067781;28;20024;-60
2022/02/04 12:33:44;;;;;;;4.35;3.42;;;9.10;99.90;;;;;;5061712;28;20484;-60
2022/02/04 12:36:26;;;;;;;4.57;3.42;;;9.10;99.90;;;;;;5069040;28;20047;-60
2022/02/04 12:38:57;;;;;;;5.47;3.30;;;9.20;99.90;;;;;;5070692;28;20077;-59
2022/02/04 12:41:30;;;;;;;3.97;3.10;;;9.20;99.90;;;;;;5067632;28;20065;-59
2022/02/04 12:44:00;;;;;;;4.78;2.88;;;9.30;99.90;;;;;;5069820;28;20021;-60
2022/02/04 12:46:27;;;;;;;3.97;2.75;;;9.30;99.90;;;;;;5061015;28;20548;-60
2022/02/04 12:48:59;;;;;;;7.07;2.85;;;9.30;99.90;;;;;;5071366;28;20040;-60
2022/02/04 12:51:35;;;;;;;4.75;2.67;;;9.30;99.90;;;;;;5063192;28;20028;-60
2022/02/04 12:54:01;;;;;;;2.63;2.28;;;9.40;99.90;;;;;;5068366;28;20039;-60
2022/02/04 12:56:54;;;;;;;3.45;2.50;;;9.30;99.90;;;;;;5070278;28;20024;-60
2022/02/04 12:59:39;;;;;;;3.08;2.30;;;9.30;99.90;;;;;;5063924;28;20024;-60
2022/02/04 13:07:53;;;;;;;2.90;2.38;;;9.40;99.90;;;;;;5024873;28;20040;-60
2022/02/04 13:10:27;;;;;;;5.82;2.20;;;9.40;99.90;;;;;;5037242;28;20033;-61
2022/02/04 13:13:05;;;;;;;2.80;2.20;;;9.40;99.90;;;;;;5045451;28;20036;-60
2022/02/04 13:15:33;;;;;;;6.57;2.55;;;9.40;99.90;;;;;;5054206;28;20465;-60
2022/02/04 13:18:03;;;;;;;3.90;2.05;;;9.40;99.90;;;;;;5070990;28;20029;-59
2022/02/04 13:20:43;;;;;;;3.60;2.45;;;9.40;99.70;;;;;;5059297;28;20033;-60
2022/02/04 13:23:14;;;;;;;4.35;2.33;;;9.40;99.60;;;;;;5065968;28;20074;-60
2022/02/04 13:25:44;;;;;;;4.65;2.60;;;9.40;99.30;;;;;;5055484;28;20530;-60
2022/02/04 13:28:14;;;;;;;3.88;2.20;;;9.40;99.30;;;;;;5061283;28;20040;-60
2022/02/04 13:30:59;;;;;;;4.10;2.50;;;9.40;99.10;;;;;;5056267;28;20063;-60
2022/02/04 13:33:26;;;;;;;5.28;3.25;;;9.40;99.40;;;;;;5062946;28;20055;-59
2022/02/04 13:36:00;;;;;;;3.75;2.88;;;9.30;99.40;;;;;;5065276;28;20030;-60
2022/02/04 13:38:36;;;;;;;6.15;3.35;;;9.30;99.40;;;;;;5066206;28;20602;-60
2022/02/04 13:41:12;;;;;;;5.97;3.42;;;9.30;99.60;;;;;;5066889;28;20035;-60
2022/02/04 13:46:37;;;;;;;5.85;3.83;;;9.10;99.90;;;;;;5068853;28;20040;-60
2022/02/04 13:49:59;;;;;;;8.20;4.13;;;8.90;99.90;;;;;;5072535;28;20029;-59
2022/02/04 13:51:59;;;;;;;5.68;4.25;;;8.80;99.90;;;;;;5061916;28;20039;-60
2022/02/04 13:54:40;;;;;;;6.80;4.68;;;8.60;99.90;;;;;;5069223;28;20476;-60
2022/02/04 13:57:16;;;;;;;6.20;4.70;;;8.40;99.90;;;;;;5069856;28;20086;-60
2022/02/04 14:00:02;;;;;;;;;;;;;;;;;;;;;
2022/02/04 14:02:36;;;;;;;7.68;4.65;;;8.20;99.90;;;;;;5073208;28;20363;-60
2022/02/04 14:05:03;;;;;;;9.48;5.00;;;8.00;99.90;;;;;;5069358;28;20112;-59
2022/02/04 14:07:53;;;;;;;7.15;5.90;;;8.00;99.90;;;;;;5070421;28;20075;-59
2022/02/04 14:10:35;;;;;;;9.30;6.18;;;7.90;99.90;;;;;;5068087;28;20032;-59
2022/02/04 14:13:06;;;;;;;7.85;5.70;;;7.80;99.90;;;;;;5070313;28;20030;-59
2022/02/04 14:15:34;;;;;;;8.73;6.05;;;7.80;99.90;;;;;;5068483;28;20048;-59
2022/02/04 14:18:06;;;;;;;10.50;6.10;;;7.80;99.90;;;;;;5071237;28;20020;-59
2022/02/04 14:20:32;;;;;;;9.02;5.78;;;7.80;99.90;;;;;;5068537;28;20013;-59
2022/02/04 14:22:58;;;;;;;10.55;6.57;;;7.70;99.90;;;;;;5066985;28;20202;-59
2022/02/04 14:25:23;;;;;;;10.38;6.65;;;7.70;99.90;;;;;;5065936;28;20062;-59
2022/02/04 14:27:54;;;;;;;12.27;6.47;;;7.60;99.90;;;;;;5071013;28;20537;-59
2022/02/04 14:30:25;;;;;;;11.32;7.22;;;7.60;99.90;;;;;;5077810;28;20496;-60
2022/02/04 14:33:10;;;;;;;12.25;6.93;;;7.60;99.90;;;;;;5070803;28;20040;-59
2022/02/04 14:54:49;;;;;;;2.33;0.57;;;7.40;99.90;;;;;;5068716;28;20020;-60
2022/02/04 15:03:23;;;;;;;1.25;0.20;;;6.60;99.90;;;;;;5066711;28;20024;-59
2022/02/04 15:05:31;;;;;;;1.38;0.30;;;6.40;99.90;;;;;;5067542;28;20031;-59
2022/02/04 15:08:01;;;;;;;0.93;0.25;;;6.20;99.90;;;;;;5067936;28;20020;-59
2022/02/04 15:10:30;;;;;;;2.22;0.60;;;6.10;99.90;;;;;;5068038;28;20056;-59
2022/02/04 15:12:56;;;;;;;0.40;0.17;;;6.00;99.90;;;;;;5068369;28;20037;-60
2022/02/04 15:15:22;;;;;;;1.30;0.10;;;5.90;99.90;;;;;;5069977;28;20051;-59
2022/02/04 15:17:48;;;;;;;0.60;0.22;;;5.80;99.90;;;;;;5065384;28;20021;-59
2022/02/04 15:20:14;;;;;;;0.65;0.20;;;5.80;99.90;;;;;;5061260;28;20544;-59
2022/02/04 15:22:39;;;;;;;1.27;0.20;;;5.70;99.90;;;;;;5057310;28;20029;-59
2022/02/04 15:25:15;;;;;;;0.50;0.20;;;5.70;99.90;;;;;;5068405;28;20036;-59
2022/02/04 15:27:46;;;;;;;0.30;0.10;;;5.60;99.90;;;;;;5063867;28;20035;-59
2022/02/04 15:30:19;;;;;;;0.60;0.20;;;5.50;99.90;;;;;;5069486;28;20021;-59
2022/02/04 15:32:45;;;;;;;1.50;0.35;;;5.50;99.90;;;;;;5063358;28;20016;-59
2022/02/04 15:35:11;;;;;;;0.85;0.40;;;5.40;99.90;;;;;;5070293;28;20048;-59
2022/02/04 15:37:36;;;;;;;1.70;0.70;;;5.40;99.90;;;;;;5071768;28;20400;-59
2022/02/04 15:40:02;;;;;;;1.63;0.57;;;5.40;99.90;;;;;;5071252;28;20103;-59
2022/02/04 15:42:33;;;;;;;1.20;0.60;;;5.40;99.90;;;;;;5070356;28;20098;-60
2022/02/04 15:45:15;;;;;;;1.98;0.60;;;5.30;99.90;;;;;;5072231;28;20373;-60
2022/02/04 15:48:12;;;;;;;1.05;0.50;;;5.30;99.90;;;;;;5070046;28;20029;-59
2022/02/04 15:50:45;;;;;;;1.20;0.55;;;5.30;99.90;;;;;;5069659;28;20032;-60
2022/02/04 15:56:29;;;;;;;1.00;0.80;;;5.20;99.90;;;;;;5049730;28;20021;-59
2022/02/04 16:01:54;;;;;;;1.33;0.88;;;5.10;99.90;;;;;;5072402;28;20017;-59
2022/02/04 16:04:24;;;;;;;1.48;1.00;;;5.10;99.90;;;;;;5072086;28;20028;-60
2022/02/04 16:06:50;;;;;;;1.17;0.85;;;5.10;99.90;;;;;;5073888;28;20039;-59
2022/02/04 16:09:19;;;;;;;2.50;0.90;;;5.10;99.90;;;;;;5075651;28;20396;-60
2022/02/04 16:16:51;;;;;;;2.63;0.85;;;5.00;99.90;;;;;;5075743;28;20441;-59
2022/02/04 16:22:11;;;;;;;2.50;0.90;;;5.00;99.90;;;;;;5075948;28;20031;-59
2022/02/04 16:29:52;;;;;;;2.72;0.80;;;5.00;99.90;;;;;;5075594;28;20396;-59
2022/02/04 16:32:18;;;;;;;2.08;0.70;;;5.00;99.90;;;;;;5075503;28;20029;-59
2022/02/04 16:34:51;;;;;;;2.30;1.02;;;5.00;99.90;;;;;;5091125;28;20070;-59
2022/02/04 16:37:25;;;;;;;2.33;0.80;;;5.00;99.90;;;;;;5075226;28;20025;-59
2022/02/04 16:39:50;;;;;;;1.58;0.90;;;5.00;99.90;;;;;;5075319;28;20055;-59
2022/02/04 16:42:16;;;;;;;2.35;0.65;;;4.90;99.90;;;;;;5075470;28;20040;-59
2022/02/04 16:44:42;;;;;;;2.42;0.50;;;4.90;99.90;;;;;;5073962;28;20369;-59
2022/02/04 16:47:08;;;;;;;1.73;0.45;;;4.90;99.90;;;;;;5075324;28;20082;-59
2022/02/04 16:49:35;;;;;;;1.95;0.50;;;4.90;99.90;;;;;;5075244;28;20024;-59
2022/02/04 16:52:01;;;;;;;2.35;0.50;;;4.80;99.90;;;;;;5075447;28;20047;-59
2022/02/04 16:54:28;;;;;;;4.25;0.50;;;4.90;99.90;;;;;;5075082;28;20028;-59
2022/02/04 16:56:55;;;;;;;4.03;1.13;;;4.80;99.90;;;;;;5075157;28;20115;-59
2022/02/04 16:59:21;;;;;;;0.68;0.40;;;4.80;99.90;;;;;;5074993;28;20056;-59
2022/02/04 17:01:47;;;;;;;3.15;0.80;;;4.80;99.90;;;;;;5075111;28;20138;-59
2022/02/04 17:04:14;;;;;;;1.58;0.40;;;4.80;99.90;;;;;;5074961;28;20046;-59
2022/02/04 17:06:44;;;;;;;0.65;0.40;;;4.80;99.90;;;;;;5074848;28;20025;-59
2022/02/04 17:11:44;;;;;;;2.78;0.20;;;4.80;99.90;;;;;;5074689;28;20025;-59
2022/02/04 17:14:12;;;;;;;2.65;0.40;;;4.80;99.90;;;;;;5074704;28;20408;-59
2022/02/04 17:16:42;;;;;;;0.73;0.28;;;4.70;99.90;;;;;;5074662;28;20035;-59
2022/02/04 17:19:09;;;;;;;2.03;0.40;;;4.70;99.90;;;;;;5074312;28;20496;-59
2022/02/04 17:21:35;;;;;;;3.65;0.50;;;4.70;99.90;;;;;;5074097;28;20024;-59
2022/02/04 17:24:01;;;;;;;5.47;0.77;;;4.70;99.90;;;;;;5072726;28;20489;-59
2022/02/04 17:26:26;;;;;;;2.83;0.45;;;4.70;99.90;;;;;;5073289;28;20113;-59
2022/02/04 17:28:52;;;;;;;3.30;0.38;;;4.70;99.90;;;;;;5072926;28;20362;-59
2022/02/04 17:31:18;;;;;;;3.00;0.68;;;4.80;99.90;;;;;;5072824;28;20067;-59
2022/02/04 17:33:44;;;;;;;2.95;0.43;;;4.80;99.90;;;;;;5072653;28;20028;-59
2022/02/04 17:36:09;;;;;;;2.55;0.30;;;4.80;99.90;;;;;;5071994;28;20037;-59
2022/02/04 17:38:36;;;;;;;2.10;0.40;;;4.80;99.90;;;;;;5070471;28;20020;-59
2022/02/04 17:41:02;;;;;;;2.38;0.50;;;4.70;99.90;;;;;;5070079;28;20021;-59
2022/02/04 17:43:28;;;;;;;4.00;0.57;;;4.80;99.90;;;;;;5070089;28;20039;-59
2022/02/04 17:45:54;;;;;;;2.88;0.50;;;4.70;99.90;;;;;;5056003;28;20465;-59
2022/02/04 17:48:35;;;;;;;3.22;0.60;;;4.70;99.90;;;;;;5070082;28;20032;-59
2022/02/04 17:51:36;;;;;;;5.07;1.45;;;4.70;99.90;;;;;;5063427;28;20012;-59
2022/02/04 17:54:06;;;;;;;5.57;0.80;;;4.70;99.90;;;;;;5071868;28;20079;-59
2022/02/04 17:56:48;;;;;;;5.00;0.80;;;4.60;99.90;;;;;;5072248;28;20024;-59
2022/02/04 17:59:33;;;;;;;2.90;0.50;;;4.60;99.90;;;;;;5072534;28;20043;-59
2022/02/04 18:07:13;;;;;;;5.68;0.90;;;4.60;99.90;;;;;;5068948;28;20032;-59
2022/02/04 18:09:42;;;;;;;4.03;0.63;;;4.50;99.90;;;;;;5069535;28;20030;-59
2022/02/04 18:12:09;;;;;;;2.97;0.50;;;4.50;99.90;;;;;;5069065;28;20040;-59
2022/02/04 18:14:35;;;;;;;3.50;0.60;;;4.50;99.90;;;;;;5069116;28;20489;-59
2022/02/04 18:17:00;;;;;;;4.07;0.60;;;4.50;99.90;;;;;;5068339;28;20040;-59
2022/02/04 18:19:26;;;;;;;5.07;0.80;;;4.40;99.90;;;;;;5069015;28;20033;-58
2022/02/04 18:21:51;;;;;;;5.88;0.93;;;4.40;99.90;;;;;;5070299;28;20107;-59
2022/02/04 18:24:17;;;;;;;5.75;0.77;;;4.40;99.90;;;;;;5076470;28;20116;-59
2022/02/04 18:26:44;;;;;;;5.00;0.60;;;4.40;99.90;;;;;;5069566;28;20016;-59
2022/02/04 18:29:10;;;;;;;7.20;0.77;;;4.40;99.90;;;;;;5066390;28;20495;-59
2022/02/04 18:31:36;;;;;;;4.55;0.80;;;4.40;99.90;;;;;;5069508;28;20055;-59
2022/02/04 18:34:04;;;;;;;3.85;0.80;;;4.30;99.90;;;;;;5070139;28;20024;-58
2022/02/04 18:36:31;;;;;;;4.97;1.08;;;4.30;99.90;;;;;;5070465;28;20029;-58
2022/02/04 18:39:13;;;;;;;7.00;1.17;;;4.30;99.90;;;;;;5070083;28;20028;-58
2022/02/04 18:42:26;;;;;;;8.23;1.00;;;4.30;99.90;;;;;;5070421;28;20016;-59
2022/02/04 18:44:32;;;;;;;6.32;1.02;;;4.30;99.90;;;;;;5077287;28;20188;-59
2022/02/04 18:47:12;;;;;;;4.68;1.13;;;4.20;99.90;;;;;;5090767;28;20035;-59
2022/02/04 18:49:48;;;;;;;6.00;1.35;;;4.20;99.90;;;;;;5076695;28;20024;-59
2022/02/04 18:57:44;;;;;;;10.40;1.95;;;4.20;99.90;;;;;;5015751;28;20086;-59
2022/02/04 19:00:16;;;;;;;9.93;2.38;;;4.30;99.90;;;;;;5061142;28;20040;-58
2022/02/04 19:02:45;;;;;;;12.60;2.58;;;4.40;99.90;;;;;;5069990;28;20027;-59
2022/02/04 19:05:18;;;;;;;11.20;2.20;;;4.40;99.90;;;;;;5069003;28;20021;-58
2022/02/04 19:07:51;;;;;;;8.48;2.33;;;4.40;99.90;;;;;;5069676;28;20028;-58
2022/02/04 19:10:16;;;;;;;6.82;2.38;;;4.40;99.90;;;;;;5069780;28;20021;-58
2022/02/04 19:12:56;;;;;;;6.60;2.42;;;4.40;99.90;;;;;;5069528;28;20051;-58
2022/02/04 19:17:55;;;;;;;11.05;2.83;;;4.50;99.90;;;;;;5069814;28;20037;-58
2022/02/04 19:20:34;;;;;;;12.52;3.67;;;4.50;99.90;;;;;;5069792;28;20111;-59
2022/02/04 19:23:04;;;;;;;7.45;3.00;;;4.50;99.90;;;;;;5069774;28;20052;-59
2022/02/04 19:25:34;;;;;;;10.90;3.08;;;4.50;99.90;;;;;;5068157;28;20094;-58
2022/02/04 19:28:00;;;;;;;6.45;3.45;;;4.50;99.90;;;;;;5069296;28;20226;-59
2022/02/04 19:30:26;;;;;;;9.93;3.63;;;4.60;99.90;;;;;;5069782;28;20052;-59